sensor_id;sensor_type;location;lat;lon;timestamp;P1;durP1;ratioP1;P2;durP2;ratioP2
64842;SDS011;51310;52.198;5.422;2023-04-24T00:00:03;2.03;;;0.97;;
64842;SDS011;51310;52.198;5.422;2023-04-24T00:02:31;2.55;;;1.10;;
64842;SDS011;51310;52.198;5.422;2023-04-24T00:04:57;2.70;;;1.33;;
64842;SDS011;51310;52.198;5.422;2023-04-24T00:07:28;3.17;;;1.00;;
64842;SDS011;51310;52.198;5.422;2023-04-24T00:09:54;4.43;;;1.30;;
64842;SDS011;51310;52.198;5.422;2023-04-24T00:12:20;3.22;;;1.15;;
64842;SDS011;51310;52.198;5.422;2023-04-24T00:14:46;3.58;;;0.88;;
64842;SDS011;51310;52.198;5.422;2023-04-24T00:17:12;1.97;;;1.20;;
64842;SDS011;51310;52.198;5.422;2023-04-24T00:19:38;1.50;;;1.02;;
64842;SDS011;51310;52.198;5.422;2023-04-24T00:22:04;2.60;;;0.90;;
64842;SDS011;51310;52.198;5.422;2023-04-24T00:24:30;4.43;;;1.05;;
64842;SDS011;51310;52.198;5.422;2023-04-24T00:26:56;3.35;;;1.30;;
64842;SDS011;51310;52.198;5.422;2023-04-24T00:29:21;1.90;;;1.10;;
64842;SDS011;51310;52.198;5.422;2023-04-24T00:31:47;2.58;;;1.25;;
64842;SDS011;51310;52.198;5.422;2023-04-24T00:34:13;2.85;;;1.30;;
64842;SDS011;51310;52.198;5.422;2023-04-24T00:36:39;1.92;;;1.10;;
64842;SDS011;51310;52.198;5.422;2023-04-24T00:39:05;1.23;;;0.82;;
64842;SDS011;51310;52.198;5.422;2023-04-24T00:41:33;1.65;;;0.70;;
64842;SDS011;51310;52.198;5.422;2023-04-24T00:44:00;2.65;;;0.77;;
64842;SDS011;51310;52.198;5.422;2023-04-24T00:46:25;1.47;;;0.73;;
64842;SDS011;51310;52.198;5.422;2023-04-24T00:48:51;1.90;;;0.80;;
64842;SDS011;51310;52.198;5.422;2023-04-24T00:51:17;3.22;;;0.80;;
64842;SDS011;51310;52.198;5.422;2023-04-24T00:53:43;1.27;;;0.70;;
64842;SDS011;51310;52.198;5.422;2023-04-24T00:56:09;2.20;;;0.70;;
64842;SDS011;51310;52.198;5.422;2023-04-24T00:58:35;1.30;;;0.80;;
64842;SDS011;51310;52.198;5.422;2023-04-24T01:01:02;2.55;;;0.90;;
64842;SDS011;51310;52.198;5.422;2023-04-24T01:03:31;1.50;;;0.68;;
64842;SDS011;51310;52.198;5.422;2023-04-24T01:05:58;2.60;;;0.60;;
64842;SDS011;51310;52.198;5.422;2023-04-24T01:08:24;1.95;;;0.77;;
64842;SDS011;51310;52.198;5.422;2023-04-24T01:10:53;1.33;;;0.90;;
64842;SDS011;51310;52.198;5.422;2023-04-24T01:13:21;1.95;;;0.70;;
64842;SDS011;51310;52.198;5.422;2023-04-24T01:15:47;1.27;;;0.70;;
64842;SDS011;51310;52.198;5.422;2023-04-24T01:18:14;1.30;;;0.60;;
64842;SDS011;51310;52.198;5.422;2023-04-24T01:20:41;1.90;;;0.70;;
64842;SDS011;51310;52.198;5.422;2023-04-24T01:23:09;1.63;;;0.90;;
64842;SDS011;51310;52.198;5.422;2023-04-24T01:25:35;1.27;;;0.70;;
64842;SDS011;51310;52.198;5.422;2023-04-24T01:28:02;0.90;;;0.60;;
64842;SDS011;51310;52.198;5.422;2023-04-24T01:30:29;1.90;;;1.00;;
64842;SDS011;51310;52.198;5.422;2023-04-24T01:32:55;1.90;;;0.95;;
64842;SDS011;51310;52.198;5.422;2023-04-24T01:35:22;1.63;;;1.10;;
64842;SDS011;51310;52.198;5.422;2023-04-24T01:37:47;3.28;;;1.20;;
64842;SDS011;51310;52.198;5.422;2023-04-24T01:40:13;2.10;;;1.20;;
64842;SDS011;51310;52.198;5.422;2023-04-24T01:42:40;1.92;;;1.50;;
64842;SDS011;51310;52.198;5.422;2023-04-24T01:45:07;3.50;;;1.90;;
64842;SDS011;51310;52.198;5.422;2023-04-24T01:47:37;4.45;;;2.20;;
64842;SDS011;51310;52.198;5.422;2023-04-24T01:50:04;4.60;;;2.10;;
64842;SDS011;51310;52.198;5.422;2023-04-24T01:52:31;4.30;;;2.17;;
64842;SDS011;51310;52.198;5.422;2023-04-24T01:55:01;3.50;;;2.20;;
64842;SDS011;51310;52.198;5.422;2023-04-24T01:57:30;5.40;;;2.65;;
64842;SDS011;51310;52.198;5.422;2023-04-24T01:59:56;5.72;;;2.85;;
64842;SDS011;51310;52.198;5.422;2023-04-24T02:02:22;4.30;;;3.03;;
64842;SDS011;51310;52.198;5.422;2023-04-24T02:04:49;4.73;;;3.50;;
64842;SDS011;51310;52.198;5.422;2023-04-24T02:07:15;4.78;;;3.42;;
64842;SDS011;51310;52.198;5.422;2023-04-24T02:09:41;5.65;;;3.45;;
64842;SDS011;51310;52.198;5.422;2023-04-24T02:12:07;5.03;;;3.37;;
64842;SDS011;51310;52.198;5.422;2023-04-24T02:14:33;4.88;;;3.20;;
64842;SDS011;51310;52.198;5.422;2023-04-24T02:16:58;3.85;;;2.90;;
64842;SDS011;51310;52.198;5.422;2023-04-24T02:19:25;4.68;;;3.20;;
64842;SDS011;51310;52.198;5.422;2023-04-24T02:21:51;4.88;;;3.45;;
64842;SDS011;51310;52.198;5.422;2023-04-24T02:24:17;5.35;;;3.53;;
64842;SDS011;51310;52.198;5.422;2023-04-24T02:26:43;4.13;;;3.20;;
64842;SDS011;51310;52.198;5.422;2023-04-24T02:29:08;6.47;;;3.47;;
64842;SDS011;51310;52.198;5.422;2023-04-24T02:31:34;6.00;;;4.00;;
64842;SDS011;51310;52.198;5.422;2023-04-24T02:34:00;6.83;;;4.60;;
64842;SDS011;51310;52.198;5.422;2023-04-24T02:36:25;6.30;;;4.60;;
64842;SDS011;51310;52.198;5.422;2023-04-24T02:38:51;9.23;;;4.80;;
64842;SDS011;51310;52.198;5.422;2023-04-24T02:41:17;8.27;;;4.53;;
64842;SDS011;51310;52.198;5.422;2023-04-24T02:43:43;5.20;;;4.20;;
64842;SDS011;51310;52.198;5.422;2023-04-24T02:46:08;6.73;;;4.20;;
64842;SDS011;51310;52.198;5.422;2023-04-24T02:48:34;5.93;;;3.67;;
64842;SDS011;51310;52.198;5.422;2023-04-24T02:51:00;6.45;;;3.50;;
64842;SDS011;51310;52.198;5.422;2023-04-24T02:53:25;5.22;;;3.15;;
64842;SDS011;51310;52.198;5.422;2023-04-24T02:55:51;6.57;;;3.22;;
64842;SDS011;51310;52.198;5.422;2023-04-24T02:58:17;3.25;;;2.38;;
64842;SDS011;51310;52.198;5.422;2023-04-24T03:00:44;3.67;;;2.40;;
64842;SDS011;51310;52.198;5.422;2023-04-24T03:03:12;4.60;;;2.07;;
64842;SDS011;51310;52.198;5.422;2023-04-24T03:05:37;4.30;;;2.07;;
64842;SDS011;51310;52.198;5.422;2023-04-24T03:08:03;3.20;;;1.77;;
64842;SDS011;51310;52.198;5.422;2023-04-24T03:10:29;2.95;;;2.17;;
64842;SDS011;51310;52.198;5.422;2023-04-24T03:12:55;2.25;;;1.30;;
64842;SDS011;51310;52.198;5.422;2023-04-24T03:15:21;1.77;;;1.00;;
64842;SDS011;51310;52.198;5.422;2023-04-24T03:17:46;2.15;;;1.20;;
64842;SDS011;51310;52.198;5.422;2023-04-24T03:20:12;1.48;;;0.98;;
64842;SDS011;51310;52.198;5.422;2023-04-24T03:22:39;2.05;;;1.20;;
64842;SDS011;51310;52.198;5.422;2023-04-24T03:25:05;2.87;;;1.10;;
64842;SDS011;51310;52.198;5.422;2023-04-24T03:27:33;1.95;;;0.70;;
64842;SDS011;51310;52.198;5.422;2023-04-24T03:29:58;3.27;;;1.07;;
64842;SDS011;51310;52.198;5.422;2023-04-24T03:32:25;3.25;;;1.00;;
64842;SDS011;51310;52.198;5.422;2023-04-24T03:34:51;1.93;;;1.10;;
64842;SDS011;51310;52.198;5.422;2023-04-24T03:37:17;2.10;;;1.20;;
64842;SDS011;51310;52.198;5.422;2023-04-24T03:39:42;2.03;;;1.07;;
64842;SDS011;51310;52.198;5.422;2023-04-24T03:42:08;2.17;;;1.20;;
64842;SDS011;51310;52.198;5.422;2023-04-24T03:44:34;1.55;;;1.20;;
64842;SDS011;51310;52.198;5.422;2023-04-24T03:47:01;2.60;;;1.10;;
64842;SDS011;51310;52.198;5.422;2023-04-24T03:49:27;2.13;;;1.40;;
64842;SDS011;51310;52.198;5.422;2023-04-24T03:51:52;1.75;;;1.20;;
64842;SDS011;51310;52.198;5.422;2023-04-24T03:54:18;1.73;;;1.23;;
64842;SDS011;51310;52.198;5.422;2023-04-24T03:56:45;4.22;;;1.48;;
64842;SDS011;51310;52.198;5.422;2023-04-24T03:59:11;2.30;;;1.30;;
64842;SDS011;51310;52.198;5.422;2023-04-24T04:01:37;3.35;;;1.60;;
64842;SDS011;51310;52.198;5.422;2023-04-24T04:04:03;4.15;;;1.77;;
64842;SDS011;51310;52.198;5.422;2023-04-24T04:06:29;2.38;;;1.58;;
64842;SDS011;51310;52.198;5.422;2023-04-24T04:08:58;2.28;;;1.67;;
64842;SDS011;51310;52.198;5.422;2023-04-24T04:11:24;3.08;;;1.95;;
64842;SDS011;51310;52.198;5.422;2023-04-24T04:13:50;3.92;;;1.90;;
64842;SDS011;51310;52.198;5.422;2023-04-24T04:16:16;6.63;;;2.45;;
64842;SDS011;51310;52.198;5.422;2023-04-24T04:18:42;2.70;;;1.85;;
64842;SDS011;51310;52.198;5.422;2023-04-24T04:21:09;2.78;;;1.85;;
64842;SDS011;51310;52.198;5.422;2023-04-24T04:23:34;3.43;;;1.80;;
64842;SDS011;51310;52.198;5.422;2023-04-24T04:26:00;4.93;;;1.97;;
64842;SDS011;51310;52.198;5.422;2023-04-24T04:28:28;2.50;;;1.70;;
64842;SDS011;51310;52.198;5.422;2023-04-24T04:30:55;3.15;;;1.75;;
64842;SDS011;51310;52.198;5.422;2023-04-24T04:33:22;2.50;;;1.45;;
64842;SDS011;51310;52.198;5.422;2023-04-24T04:35:51;2.10;;;1.33;;
64842;SDS011;51310;52.198;5.422;2023-04-24T04:38:18;3.15;;;1.40;;
64842;SDS011;51310;52.198;5.422;2023-04-24T04:40:44;4.25;;;1.30;;
64842;SDS011;51310;52.198;5.422;2023-04-24T04:43:10;3.30;;;1.20;;
64842;SDS011;51310;52.198;5.422;2023-04-24T04:45:38;4.68;;;1.45;;
64842;SDS011;51310;52.198;5.422;2023-04-24T04:48:05;1.73;;;1.23;;
64842;SDS011;51310;52.198;5.422;2023-04-24T04:50:32;2.08;;;1.42;;
64842;SDS011;51310;52.198;5.422;2023-04-24T04:52:58;2.10;;;1.45;;
64842;SDS011;51310;52.198;5.422;2023-04-24T04:55:24;2.75;;;1.60;;
64842;SDS011;51310;52.198;5.422;2023-04-24T04:57:50;3.63;;;1.60;;
64842;SDS011;51310;52.198;5.422;2023-04-24T05:00:17;3.50;;;1.70;;
64842;SDS011;51310;52.198;5.422;2023-04-24T05:02:43;2.65;;;1.75;;
64842;SDS011;51310;52.198;5.422;2023-04-24T05:05:09;4.00;;;2.00;;
64842;SDS011;51310;52.198;5.422;2023-04-24T05:07:35;3.25;;;1.83;;
64842;SDS011;51310;52.198;5.422;2023-04-24T05:10:01;3.20;;;2.10;;
64842;SDS011;51310;52.198;5.422;2023-04-24T05:12:27;3.07;;;2.30;;
64842;SDS011;51310;52.198;5.422;2023-04-24T05:14:53;6.07;;;2.60;;
64842;SDS011;51310;52.198;5.422;2023-04-24T05:17:19;5.97;;;2.93;;
64842;SDS011;51310;52.198;5.422;2023-04-24T05:19:44;4.63;;;2.80;;
64842;SDS011;51310;52.198;5.422;2023-04-24T05:22:11;6.90;;;3.50;;
64842;SDS011;51310;52.198;5.422;2023-04-24T05:24:37;6.40;;;2.97;;
64842;SDS011;51310;52.198;5.422;2023-04-24T05:27:03;5.03;;;3.28;;
64842;SDS011;51310;52.198;5.422;2023-04-24T05:29:29;6.68;;;3.03;;
64842;SDS011;51310;52.198;5.422;2023-04-24T05:31:56;6.47;;;3.37;;
64842;SDS011;51310;52.198;5.422;2023-04-24T05:34:22;5.82;;;3.38;;
64842;SDS011;51310;52.198;5.422;2023-04-24T05:36:48;6.30;;;3.50;;
64842;SDS011;51310;52.198;5.422;2023-04-24T05:39:15;6.57;;;3.83;;
64842;SDS011;51310;52.198;5.422;2023-04-24T05:41:41;6.35;;;3.40;;
64842;SDS011;51310;52.198;5.422;2023-04-24T05:44:07;6.88;;;3.67;;
64842;SDS011;51310;52.198;5.422;2023-04-24T05:46:33;5.68;;;3.10;;
64842;SDS011;51310;52.198;5.422;2023-04-24T05:48:58;6.00;;;3.10;;
64842;SDS011;51310;52.198;5.422;2023-04-24T05:51:24;6.35;;;3.15;;
64842;SDS011;51310;52.198;5.422;2023-04-24T05:53:50;6.63;;;3.60;;
64842;SDS011;51310;52.198;5.422;2023-04-24T05:56:17;5.88;;;3.13;;
64842;SDS011;51310;52.198;5.422;2023-04-24T05:58:43;4.70;;;2.92;;
64842;SDS011;51310;52.198;5.422;2023-04-24T06:01:10;5.60;;;3.17;;
64842;SDS011;51310;52.198;5.422;2023-04-24T06:03:37;6.15;;;3.03;;
64842;SDS011;51310;52.198;5.422;2023-04-24T06:06:05;8.35;;;2.88;;
64842;SDS011;51310;52.198;5.422;2023-04-24T06:08:31;3.97;;;2.45;;
64842;SDS011;51310;52.198;5.422;2023-04-24T06:10:57;4.10;;;2.50;;
64842;SDS011;51310;52.198;5.422;2023-04-24T06:13:23;3.20;;;1.70;;
64842;SDS011;51310;52.198;5.422;2023-04-24T06:15:49;3.30;;;1.90;;
64842;SDS011;51310;52.198;5.422;2023-04-24T06:18:15;2.45;;;1.30;;
64842;SDS011;51310;52.198;5.422;2023-04-24T06:20:41;2.95;;;1.45;;
64842;SDS011;51310;52.198;5.422;2023-04-24T06:23:07;2.70;;;1.33;;
64842;SDS011;51310;52.198;5.422;2023-04-24T06:25:33;2.53;;;1.15;;
64842;SDS011;51310;52.198;5.422;2023-04-24T06:27:59;2.42;;;1.50;;
64842;SDS011;51310;52.198;5.422;2023-04-24T06:30:25;2.42;;;1.30;;
64842;SDS011;51310;52.198;5.422;2023-04-24T06:32:52;2.65;;;1.10;;
64842;SDS011;51310;52.198;5.422;2023-04-24T06:35:18;3.30;;;1.67;;
64842;SDS011;51310;52.198;5.422;2023-04-24T06:37:43;5.50;;;2.65;;
64842;SDS011;51310;52.198;5.422;2023-04-24T06:40:09;7.93;;;4.72;;
64842;SDS011;51310;52.198;5.422;2023-04-24T06:42:35;17.45;;;7.97;;
64842;SDS011;51310;52.198;5.422;2023-04-24T06:45:01;26.10;;;10.77;;
64842;SDS011;51310;52.198;5.422;2023-04-24T06:47:28;18.40;;;10.85;;
64842;SDS011;51310;52.198;5.422;2023-04-24T06:49:54;20.85;;;10.73;;
64842;SDS011;51310;52.198;5.422;2023-04-24T06:52:20;20.48;;;11.35;;
64842;SDS011;51310;52.198;5.422;2023-04-24T06:54:46;24.00;;;11.77;;
64842;SDS011;51310;52.198;5.422;2023-04-24T06:57:11;23.55;;;10.23;;
64842;SDS011;51310;52.198;5.422;2023-04-24T06:59:37;21.40;;;10.70;;
64842;SDS011;51310;52.198;5.422;2023-04-24T07:02:03;18.67;;;10.83;;
64842;SDS011;51310;52.198;5.422;2023-04-24T07:04:29;27.57;;;10.53;;
64842;SDS011;51310;52.198;5.422;2023-04-24T07:06:55;20.92;;;10.35;;
64842;SDS011;51310;52.198;5.422;2023-04-24T07:09:23;20.83;;;11.10;;
64842;SDS011;51310;52.198;5.422;2023-04-24T07:11:50;25.83;;;12.57;;
64842;SDS011;51310;52.198;5.422;2023-04-24T07:14:17;22.05;;;11.68;;
64842;SDS011;51310;52.198;5.422;2023-04-24T07:16:43;20.30;;;11.00;;
64842;SDS011;51310;52.198;5.422;2023-04-24T07:19:09;19.13;;;11.40;;
64842;SDS011;51310;52.198;5.422;2023-04-24T07:21:35;21.60;;;11.97;;
64842;SDS011;51310;52.198;5.422;2023-04-24T07:24:01;22.00;;;10.90;;
64842;SDS011;51310;52.198;5.422;2023-04-24T07:26:27;21.02;;;10.63;;
64842;SDS011;51310;52.198;5.422;2023-04-24T07:28:55;26.02;;;10.07;;
64842;SDS011;51310;52.198;5.422;2023-04-24T07:31:21;20.63;;;9.83;;
64842;SDS011;51310;52.198;5.422;2023-04-24T07:33:47;20.17;;;10.20;;
64842;SDS011;51310;52.198;5.422;2023-04-24T07:36:13;19.20;;;9.73;;
64842;SDS011;51310;52.198;5.422;2023-04-24T07:38:43;18.25;;;10.88;;
64842;SDS011;51310;52.198;5.422;2023-04-24T07:41:15;20.63;;;9.45;;
64842;SDS011;51310;52.198;5.422;2023-04-24T07:43:40;18.45;;;9.13;;
64842;SDS011;51310;52.198;5.422;2023-04-24T07:46:07;23.42;;;9.95;;
64842;SDS011;51310;52.198;5.422;2023-04-24T07:48:33;20.10;;;9.93;;
64842;SDS011;51310;52.198;5.422;2023-04-24T07:50:59;20.83;;;9.37;;
64842;SDS011;51310;52.198;5.422;2023-04-24T07:53:25;15.57;;;8.57;;
64842;SDS011;51310;52.198;5.422;2023-04-24T07:55:51;16.80;;;9.18;;
64842;SDS011;51310;52.198;5.422;2023-04-24T07:58:17;22.92;;;10.13;;
64842;SDS011;51310;52.198;5.422;2023-04-24T08:00:43;21.10;;;9.18;;
64842;SDS011;51310;52.198;5.422;2023-04-24T08:03:08;19.63;;;9.93;;
64842;SDS011;51310;52.198;5.422;2023-04-24T08:05:34;19.75;;;8.85;;
64842;SDS011;51310;52.198;5.422;2023-04-24T08:08:00;17.73;;;9.07;;
64842;SDS011;51310;52.198;5.422;2023-04-24T08:10:25;21.83;;;8.63;;
64842;SDS011;51310;52.198;5.422;2023-04-24T08:12:51;16.20;;;8.90;;
64842;SDS011;51310;52.198;5.422;2023-04-24T08:15:17;18.07;;;7.80;;
64842;SDS011;51310;52.198;5.422;2023-04-24T08:17:43;18.42;;;6.95;;
64842;SDS011;51310;52.198;5.422;2023-04-24T08:20:10;17.83;;;6.57;;
64842;SDS011;51310;52.198;5.422;2023-04-24T08:22:41;22.67;;;6.03;;
64842;SDS011;51310;52.198;5.422;2023-04-24T08:25:09;21.02;;;6.35;;
64842;SDS011;51310;52.198;5.422;2023-04-24T08:27:36;18.27;;;6.60;;
64842;SDS011;51310;52.198;5.422;2023-04-24T08:30:02;20.55;;;6.28;;
64842;SDS011;51310;52.198;5.422;2023-04-24T08:32:29;24.52;;;6.00;;
64842;SDS011;51310;52.198;5.422;2023-04-24T08:34:56;15.48;;;5.22;;
64842;SDS011;51310;52.198;5.422;2023-04-24T08:37:22;16.58;;;4.93;;
64842;SDS011;51310;52.198;5.422;2023-04-24T08:39:51;17.45;;;4.55;;
64842;SDS011;51310;52.198;5.422;2023-04-24T08:42:18;10.05;;;4.25;;
64842;SDS011;51310;52.198;5.422;2023-04-24T08:44:45;11.40;;;4.07;;
64842;SDS011;51310;52.198;5.422;2023-04-24T08:47:13;14.65;;;4.53;;
64842;SDS011;51310;52.198;5.422;2023-04-24T08:49:41;19.58;;;5.05;;
64842;SDS011;51310;52.198;5.422;2023-04-24T08:52:08;17.75;;;5.40;;
64842;SDS011;51310;52.198;5.422;2023-04-24T08:54:34;15.02;;;5.88;;
64842;SDS011;51310;52.198;5.422;2023-04-24T08:57:01;18.48;;;4.90;;
64842;SDS011;51310;52.198;5.422;2023-04-24T08:59:28;17.27;;;5.00;;
64842;SDS011;51310;52.198;5.422;2023-04-24T09:01:56;20.02;;;5.55;;
64842;SDS011;51310;52.198;5.422;2023-04-24T09:04:23;26.15;;;6.57;;
64842;SDS011;51310;52.198;5.422;2023-04-24T09:06:55;24.55;;;5.00;;
64842;SDS011;51310;52.198;5.422;2023-04-24T09:09:22;22.38;;;5.10;;
64842;SDS011;51310;52.198;5.422;2023-04-24T09:11:50;9.65;;;2.80;;
64842;SDS011;51310;52.198;5.422;2023-04-24T09:14:19;17.93;;;3.47;;
64842;SDS011;51310;52.198;5.422;2023-04-24T09:16:46;14.57;;;3.42;;
64842;SDS011;51310;52.198;5.422;2023-04-24T09:19:12;9.60;;;2.80;;
64842;SDS011;51310;52.198;5.422;2023-04-24T09:21:38;10.07;;;2.50;;
64842;SDS011;51310;52.198;5.422;2023-04-24T09:24:05;18.83;;;3.08;;
64842;SDS011;51310;52.198;5.422;2023-04-24T09:26:39;11.73;;;2.40;;
64842;SDS011;51310;52.198;5.422;2023-04-24T09:29:04;14.25;;;3.63;;
64842;SDS011;51310;52.198;5.422;2023-04-24T09:31:30;8.45;;;2.38;;
64842;SDS011;51310;52.198;5.422;2023-04-24T09:33:57;9.80;;;2.65;;
64842;SDS011;51310;52.198;5.422;2023-04-24T09:36:29;8.52;;;1.90;;
64842;SDS011;51310;52.198;5.422;2023-04-24T09:39:02;11.25;;;2.30;;
64842;SDS011;51310;52.198;5.422;2023-04-24T09:41:33;9.00;;;2.30;;
64842;SDS011;51310;52.198;5.422;2023-04-24T09:44:10;13.30;;;2.40;;
64842;SDS011;51310;52.198;5.422;2023-04-24T09:46:40;12.53;;;2.80;;
64842;SDS011;51310;52.198;5.422;2023-04-24T09:49:08;8.50;;;2.60;;
64842;SDS011;51310;52.198;5.422;2023-04-24T09:51:38;13.00;;;3.92;;
64842;SDS011;51310;52.198;5.422;2023-04-24T09:54:05;7.78;;;2.63;;
64842;SDS011;51310;52.198;5.422;2023-04-24T09:56:44;11.65;;;2.53;;
64842;SDS011;51310;52.198;5.422;2023-04-24T09:59:13;7.70;;;2.38;;
64842;SDS011;51310;52.198;5.422;2023-04-24T10:01:41;10.93;;;2.35;;
64842;SDS011;51310;52.198;5.422;2023-04-24T10:04:16;7.32;;;2.55;;
64842;SDS011;51310;52.198;5.422;2023-04-24T10:06:48;15.32;;;2.80;;
64842;SDS011;51310;52.198;5.422;2023-04-24T10:09:19;10.65;;;2.42;;
64842;SDS011;51310;52.198;5.422;2023-04-24T10:11:48;12.85;;;2.55;;
64842;SDS011;51310;52.198;5.422;2023-04-24T10:14:17;11.77;;;2.28;;
64842;SDS011;51310;52.198;5.422;2023-04-24T10:16:46;12.52;;;2.65;;
64842;SDS011;51310;52.198;5.422;2023-04-24T10:19:13;9.25;;;2.83;;
64842;SDS011;51310;52.198;5.422;2023-04-24T10:21:41;11.02;;;2.75;;
64842;SDS011;51310;52.198;5.422;2023-04-24T10:24:12;6.63;;;1.60;;
64842;SDS011;51310;52.198;5.422;2023-04-24T10:26:45;10.35;;;1.60;;
64842;SDS011;51310;52.198;5.422;2023-04-24T10:29:13;5.20;;;1.30;;
64842;SDS011;51310;52.198;5.422;2023-04-24T10:31:41;9.07;;;1.60;;
64842;SDS011;51310;52.198;5.422;2023-04-24T10:34:10;6.72;;;1.60;;
64842;SDS011;51310;52.198;5.422;2023-04-24T10:36:38;8.52;;;2.03;;
64842;SDS011;51310;52.198;5.422;2023-04-24T10:39:11;5.57;;;1.48;;
64842;SDS011;51310;52.198;5.422;2023-04-24T10:41:40;6.30;;;1.38;;
64842;SDS011;51310;52.198;5.422;2023-04-24T10:44:10;3.92;;;1.30;;
64842;SDS011;51310;52.198;5.422;2023-04-24T10:46:39;6.65;;;1.55;;
64842;SDS011;51310;52.198;5.422;2023-04-24T10:49:10;4.65;;;1.70;;
64842;SDS011;51310;52.198;5.422;2023-04-24T10:54:26;4.97;;;1.20;;
64842;SDS011;51310;52.198;5.422;2023-04-24T10:57:25;8.43;;;1.33;;
64842;SDS011;51310;52.198;5.422;2023-04-24T11:00:13;5.13;;;1.10;;
64842;SDS011;51310;52.198;5.422;2023-04-24T11:02:47;5.23;;;1.23;;
64842;SDS011;51310;52.198;5.422;2023-04-24T11:05:18;5.47;;;1.58;;
64842;SDS011;51310;52.198;5.422;2023-04-24T11:10:41;2.90;;;1.02;;
64842;SDS011;51310;52.198;5.422;2023-04-24T11:13:13;7.10;;;1.60;;
64842;SDS011;51310;52.198;5.422;2023-04-24T11:15:51;9.73;;;1.25;;
64842;SDS011;51310;52.198;5.422;2023-04-24T11:21:42;5.00;;;1.10;;
64842;SDS011;51310;52.198;5.422;2023-04-24T11:24:29;5.60;;;1.70;;
64842;SDS011;51310;52.198;5.422;2023-04-24T11:34:55;3.30;;;1.05;;
64842;SDS011;51310;52.198;5.422;2023-04-24T11:37:23;3.87;;;0.90;;
64842;SDS011;51310;52.198;5.422;2023-04-24T11:39:53;5.47;;;1.17;;
64842;SDS011;51310;52.198;5.422;2023-04-24T11:42:21;6.28;;;1.23;;
64842;SDS011;51310;52.198;5.422;2023-04-24T11:44:49;5.70;;;1.63;;
64842;SDS011;51310;52.198;5.422;2023-04-24T11:47:17;2.63;;;0.90;;
64842;SDS011;51310;52.198;5.422;2023-04-24T11:49:43;2.00;;;0.60;;
64842;SDS011;51310;52.198;5.422;2023-04-24T11:52:09;3.43;;;0.60;;
64842;SDS011;51310;52.198;5.422;2023-04-24T11:54:35;3.33;;;0.75;;
64842;SDS011;51310;52.198;5.422;2023-04-24T11:57:04;4.23;;;0.67;;
64842;SDS011;51310;52.198;5.422;2023-04-24T11:59:35;3.22;;;0.40;;
64842;SDS011;51310;52.198;5.422;2023-04-24T12:02:02;3.63;;;0.60;;
64842;SDS011;51310;52.198;5.422;2023-04-24T12:04:37;3.65;;;0.60;;
64842;SDS011;51310;52.198;5.422;2023-04-24T12:07:05;4.28;;;0.82;;
64842;SDS011;51310;52.198;5.422;2023-04-24T12:09:40;3.73;;;0.77;;
64842;SDS011;51310;52.198;5.422;2023-04-24T12:12:07;3.90;;;0.90;;
64842;SDS011;51310;52.198;5.422;2023-04-24T12:14:41;4.07;;;1.10;;
64842;SDS011;51310;52.198;5.422;2023-04-24T12:17:09;4.90;;;1.00;;
64842;SDS011;51310;52.198;5.422;2023-04-24T12:19:35;6.75;;;1.13;;
64842;SDS011;51310;52.198;5.422;2023-04-24T12:22:02;2.67;;;0.80;;
64842;SDS011;51310;52.198;5.422;2023-04-24T12:24:30;2.77;;;0.93;;
64842;SDS011;51310;52.198;5.422;2023-04-24T12:26:57;4.35;;;1.10;;
64842;SDS011;51310;52.198;5.422;2023-04-24T12:29:24;6.47;;;1.02;;
64842;SDS011;51310;52.198;5.422;2023-04-24T12:31:50;7.47;;;1.30;;
64842;SDS011;51310;52.198;5.422;2023-04-24T12:34:20;7.63;;;1.97;;
64842;SDS011;51310;52.198;5.422;2023-04-24T12:36:47;3.85;;;1.50;;
64842;SDS011;51310;52.198;5.422;2023-04-24T12:39:14;6.15;;;1.10;;
64842;SDS011;51310;52.198;5.422;2023-04-24T12:41:56;4.43;;;1.20;;
64842;SDS011;51310;52.198;5.422;2023-04-24T12:44:32;4.95;;;1.20;;
64842;SDS011;51310;52.198;5.422;2023-04-24T12:47:02;4.45;;;1.23;;
64842;SDS011;51310;52.198;5.422;2023-04-24T12:51:55;5.40;;;1.40;;
64842;SDS011;51310;52.198;5.422;2023-04-24T12:54:21;10.48;;;1.85;;
64842;SDS011;51310;52.198;5.422;2023-04-24T12:56:47;9.85;;;1.50;;
64842;SDS011;51310;52.198;5.422;2023-04-24T12:59:13;9.60;;;1.92;;
64842;SDS011;51310;52.198;5.422;2023-04-24T13:01:39;8.93;;;2.38;;
64842;SDS011;51310;52.198;5.422;2023-04-24T13:04:06;12.50;;;2.33;;
64842;SDS011;51310;52.198;5.422;2023-04-24T13:06:31;7.03;;;2.00;;
64842;SDS011;51310;52.198;5.422;2023-04-24T13:08:57;9.63;;;2.47;;
64842;SDS011;51310;52.198;5.422;2023-04-24T13:11:23;13.63;;;3.13;;
64842;SDS011;51310;52.198;5.422;2023-04-24T13:13:49;14.52;;;2.88;;
64842;SDS011;51310;52.198;5.422;2023-04-24T13:16:15;14.30;;;2.53;;
64842;SDS011;51310;52.198;5.422;2023-04-24T13:18:41;16.27;;;3.40;;
64842;SDS011;51310;52.198;5.422;2023-04-24T13:21:06;12.70;;;3.10;;
64842;SDS011;51310;52.198;5.422;2023-04-24T13:23:32;13.57;;;2.95;;
64842;SDS011;51310;52.198;5.422;2023-04-24T13:25:58;9.32;;;2.90;;
64842;SDS011;51310;52.198;5.422;2023-04-24T13:28:24;11.07;;;2.78;;
64842;SDS011;51310;52.198;5.422;2023-04-24T13:30:50;11.37;;;2.53;;
64842;SDS011;51310;52.198;5.422;2023-04-24T13:33:16;9.32;;;2.45;;
64842;SDS011;51310;52.198;5.422;2023-04-24T13:35:42;10.77;;;2.25;;
64842;SDS011;51310;52.198;5.422;2023-04-24T13:38:07;11.05;;;2.45;;
64842;SDS011;51310;52.198;5.422;2023-04-24T13:40:33;9.98;;;2.55;;
64842;SDS011;51310;52.198;5.422;2023-04-24T13:42:59;12.90;;;2.15;;
64842;SDS011;51310;52.198;5.422;2023-04-24T13:45:25;9.67;;;2.27;;
64842;SDS011;51310;52.198;5.422;2023-04-24T13:47:51;9.65;;;2.35;;
64842;SDS011;51310;52.198;5.422;2023-04-24T13:50:18;13.85;;;2.78;;
64842;SDS011;51310;52.198;5.422;2023-04-24T13:52:45;13.02;;;2.78;;
64842;SDS011;51310;52.198;5.422;2023-04-24T13:55:11;9.10;;;2.80;;
64842;SDS011;51310;52.198;5.422;2023-04-24T13:57:36;13.30;;;2.47;;
64842;SDS011;51310;52.198;5.422;2023-04-24T14:00:02;11.50;;;2.80;;
64842;SDS011;51310;52.198;5.422;2023-04-24T14:02:29;11.10;;;3.55;;
64842;SDS011;51310;52.198;5.422;2023-04-24T14:04:55;9.10;;;2.22;;
64842;SDS011;51310;52.198;5.422;2023-04-24T14:07:21;11.20;;;2.20;;
64842;SDS011;51310;52.198;5.422;2023-04-24T14:09:46;13.98;;;2.28;;
64842;SDS011;51310;52.198;5.422;2023-04-24T14:12:12;11.17;;;2.97;;
64842;SDS011;51310;52.198;5.422;2023-04-24T14:14:39;7.68;;;1.85;;
64842;SDS011;51310;52.198;5.422;2023-04-24T14:17:05;12.70;;;3.00;;
64842;SDS011;51310;52.198;5.422;2023-04-24T14:19:30;12.40;;;2.63;;
64842;SDS011;51310;52.198;5.422;2023-04-24T14:21:56;9.77;;;2.70;;
64842;SDS011;51310;52.198;5.422;2023-04-24T14:24:23;8.57;;;3.22;;
64842;SDS011;51310;52.198;5.422;2023-04-24T14:26:49;14.43;;;2.73;;
64842;SDS011;51310;52.198;5.422;2023-04-24T14:29:14;8.63;;;2.17;;
64842;SDS011;51310;52.198;5.422;2023-04-24T14:31:42;10.17;;;2.93;;
64842;SDS011;51310;52.198;5.422;2023-04-24T14:34:08;8.85;;;2.47;;
64842;SDS011;51310;52.198;5.422;2023-04-24T14:36:34;12.20;;;2.60;;
64842;SDS011;51310;52.198;5.422;2023-04-24T14:39:00;12.40;;;3.60;;
64842;SDS011;51310;52.198;5.422;2023-04-24T14:41:30;14.40;;;3.20;;
64842;SDS011;51310;52.198;5.422;2023-04-24T14:43:56;16.05;;;3.35;;
64842;SDS011;51310;52.198;5.422;2023-04-24T14:46:22;13.25;;;3.38;;
64842;SDS011;51310;52.198;5.422;2023-04-24T14:48:47;8.43;;;2.43;;
64842;SDS011;51310;52.198;5.422;2023-04-24T14:51:13;9.53;;;3.20;;
64842;SDS011;51310;52.198;5.422;2023-04-24T14:53:39;8.37;;;2.73;;
64842;SDS011;51310;52.198;5.422;2023-04-24T14:56:04;8.50;;;2.10;;
64842;SDS011;51310;52.198;5.422;2023-04-24T14:58:30;9.77;;;2.15;;
64842;SDS011;51310;52.198;5.422;2023-04-24T15:00:56;4.80;;;1.80;;